createdAt,value
2018-12-01T00:02:24.221Z,23
2018-12-01T00:12:31.722Z,15
2018-12-01T00:22:38.011Z,17
2018-12-01T00:32:47.142Z,17
2018-12-01T00:42:52.782Z,18
2018-12-01T00:53:00.966Z,18
2018-12-01T01:13:14.185Z,21
2018-12-01T01:23:21.053Z,23
2018-12-01T01:33:28.373Z,19
2018-12-01T01:43:36.882Z,22
2018-12-01T01:53:43.968Z,19
2018-12-01T02:03:53.445Z,24
2018-12-01T02:14:00.317Z,21
2018-12-01T02:24:09.214Z,24
2018-12-01T02:34:18.309Z,21
2018-12-01T02:44:25.835Z,26
2018-12-01T02:54:33.509Z,22
2018-12-01T03:04:41.808Z,21
2018-12-01T03:14:48.228Z,15
2018-12-01T03:24:56.385Z,18
2018-12-01T03:35:03.993Z,22
2018-12-01T03:45:11.092Z,20
2018-12-01T03:55:19.255Z,19
2018-12-01T04:05:27.705Z,22
2018-12-01T04:15:35.300Z,25
2018-12-01T04:25:42.294Z,16
2018-12-01T04:35:49.550Z,15
2018-12-01T04:45:56.040Z,16
2018-12-01T04:56:02.825Z,16
2018-12-01T05:06:08.487Z,16
2018-12-01T05:16:16.086Z,16
2018-12-01T05:26:21.615Z,14
2018-12-01T05:36:27.141Z,14
2018-12-01T05:46:34.302Z,16
2018-12-01T05:56:41.988Z,18
2018-12-01T06:06:49.835Z,22
2018-12-01T06:16:57.236Z,25
2018-12-01T06:27:03.803Z,17
2018-12-01T06:37:12.061Z,15
2018-12-01T06:47:18.812Z,14
2018-12-01T06:57:25.753Z,15
2018-12-01T07:07:33.315Z,14
2018-12-01T07:17:40.068Z,13
2018-12-01T07:27:46.193Z,12
2018-12-01T07:37:52.916Z,11
2018-12-01T07:48:01.962Z,13
2018-12-01T07:58:09.808Z,12
2018-12-01T08:08:17.537Z,12
2018-12-01T08:18:26.493Z,9
2018-12-01T08:28:34.598Z,12
2018-12-01T08:38:44.115Z,12
2018-12-01T08:48:50.455Z,11
2018-12-01T08:58:59.602Z,12
2018-12-01T09:09:06.447Z,13
2018-12-01T09:19:14.355Z,12
2018-12-01T09:29:20.644Z,11
2018-12-01T09:30:33.474Z,9
2018-12-01T09:40:42.626Z,10
2018-12-01T09:50:48.601Z,7
2018-12-01T10:00:57.063Z,8
2018-12-01T10:11:04.378Z,7
2018-12-01T10:21:12.256Z,10
2018-12-01T10:31:18.593Z,6
2018-12-01T10:41:26.553Z,9
2018-12-01T10:42:39.616Z,6
2018-12-01T10:52:47.212Z,6
2018-12-01T11:02:56.135Z,6
2018-12-01T11:13:02.246Z,5
2018-12-01T11:23:08.922Z,3
2018-12-01T11:33:16.700Z,4
2018-12-01T11:43:21.828Z,2
2018-12-01T11:45:36.048Z,10
2018-12-01T11:55:42.698Z,4
2018-12-01T12:05:52.817Z,7
2018-12-01T12:15:58.288Z,4
2018-12-01T12:26:07.046Z,3
2018-12-01T12:36:13.179Z,3
2018-12-01T12:46:18.742Z,3
2018-12-01T12:56:28.945Z,4
2018-12-01T13:06:37.758Z,3
2018-12-01T13:16:44.123Z,2
2018-12-01T13:26:52.914Z,3
2018-12-01T13:37:00.258Z,4
2018-12-01T13:47:07.075Z,4
2018-12-01T13:57:14.479Z,8
2018-12-01T14:07:21.930Z,11
2018-12-01T14:17:29.452Z,5
2018-12-01T14:27:38.727Z,69
2018-12-01T14:37:44.832Z,62
2018-12-01T14:47:52.550Z,23
2018-12-01T14:58:01.599Z,17
2018-12-01T15:08:10.587Z,30
2018-12-01T15:18:20.359Z,11
2018-12-01T15:28:28.794Z,13
2018-12-01T15:38:34.639Z,14
2018-12-01T15:48:41.703Z,4
2018-12-01T15:58:50.014Z,23
2018-12-01T16:08:56.419Z,21
2018-12-01T16:19:05.819Z,17
2018-12-01T16:29:14.663Z,16
2018-12-01T16:39:21.195Z,28
2018-12-01T16:49:30.569Z,17
2018-12-01T16:59:37.571Z,16
2018-12-01T17:09:45.942Z,23
2018-12-01T17:19:53.098Z,21
2018-12-01T17:29:59.977Z,14
2018-12-01T17:40:07.282Z,25
2018-12-01T17:50:15.135Z,23
2018-12-01T18:00:21.676Z,9
2018-12-01T18:10:30.464Z,7
2018-12-01T18:20:37.538Z,12
2018-12-01T18:30:44.837Z,8
2018-12-01T18:40:50.846Z,8
2018-12-01T18:50:57.592Z,8
2018-12-01T19:01:05.174Z,6
2018-12-01T19:11:12.885Z,9
2018-12-01T19:21:19.304Z,7
2018-12-01T19:31:26.151Z,11
2018-12-01T19:41:32.727Z,10
2018-12-01T19:51:39.905Z,8
2018-12-01T20:01:48.606Z,11
2018-12-01T20:11:55.728Z,9
2018-12-01T20:22:05.018Z,22
2018-12-01T20:32:12.606Z,11
2018-12-01T20:42:21.865Z,10
2018-12-01T20:52:26.679Z,13
2018-12-01T21:02:36.028Z,9
2018-12-01T21:12:43.021Z,9
2018-12-01T21:22:51.247Z,10
2018-12-01T21:32:57.809Z,11
2018-12-01T21:43:05.488Z,11
2018-12-01T21:53:14.814Z,12
2018-12-01T22:03:22.524Z,8
2018-12-01T22:13:28.426Z,10
2018-12-01T22:14:12.879Z,10
2018-12-01T22:24:19.681Z,10
2018-12-01T22:34:27.309Z,6
2018-12-01T22:44:35.523Z,9
2018-12-01T22:54:43.795Z,10
2018-12-01T23:04:48.794Z,10
2018-12-01T23:14:56.155Z,8
2018-12-01T23:25:03.959Z,8
2018-12-01T23:35:11.482Z,10
2018-12-01T23:45:20.022Z,8
2018-12-01T23:55:39.302Z,10
